Time;durP1;ratioP1;P1;durP2;ratioP2;P2;SDS_P1;SDS_P2;PMS_P1;PMS_P2;Temp;Humidity;BMP_temperature;BMP_pressure;BME280_temperature;BME280_humidity;BME280_pressure;Samples;Min_cycle;Max_cycle;Signal;HPM_P1;HPM_P2
2022/09/22 05:42:35;;;;;;;16.35;11.90;;;9.40;1.00;;;;;;6092855;23;20635;-88
2022/09/22 05:45:17;;;;;;;16.25;9.52;;;9.50;99.90;;;;;;6011835;23;20370;-86
2022/09/22 05:47:42;;;;;;;13.90;10.73;;;9.60;1.00;;;;;;6205309;23;20255;-86
2022/09/22 05:50:12;;;;;;;13.90;9.70;;;9.70;99.90;;;;;;6188448;23;20397;-85
2022/09/22 05:52:45;;;;;;;17.50;9.50;;;9.80;99.90;;;;;;6192793;23;20177;-86
2022/09/22 05:55:12;;;;;;;13.40;8.70;;;9.90;1.00;;;;;;6213464;23;20533;-85
2022/09/22 05:57:38;;;;;;;15.97;9.20;;;11.40;1.00;;;;;;6188195;23;20981;-86
2022/09/22 06:00:24;;;;;;;12.43;7.27;;;14.60;1.00;;;;;;6209026;23;20413;-86
2022/09/22 06:06:42;;;;;;;10.73;6.93;;;21.50;99.90;;;;;;6194031;23;20971;-87
2022/09/22 06:09:34;;;;;;;12.87;7.50;;;24.50;99.90;;;;;;6182516;23;20472;-85
2022/09/22 06:12:09;;;;;;;10.70;7.90;;;26.70;99.90;;;;;;6183000;23;20382;-85
2022/09/22 06:14:59;;;;;;;8.27;6.17;;;28.70;99.90;;;;;;6207235;23;20391;-86
2022/09/22 06:17:42;;;;;;;10.60;6.73;;;30.30;99.90;;;;;;6182233;23;20452;-86
2022/09/22 06:20:46;;;;;;;8.77;5.20;;;31.70;99.90;;;;;;6207556;23;20829;-86
2022/09/22 06:26:17;;;;;;;6.73;5.03;;;34.40;99.90;;;;;;6178086;23;20963;-86
2022/09/22 06:29:05;;;;;;;4.67;3.20;;;35.60;99.90;;;;;;6207408;23;20382;-86
2022/09/22 06:31:53;;;;;;;4.67;2.80;;;36.50;99.90;;;;;;6181643;23;20440;-86
2022/09/22 06:34:48;;;;;;;4.80;2.90;;;37.00;93.20;;;;;;6207870;23;20384;-87
2022/09/22 06:37:55;;;;;;;6.40;3.70;;;37.80;84.70;;;;;;6183941;23;20800;-87
2022/09/22 06:40:41;;;;;;;8.37;3.40;;;39.10;73.40;;;;;;6172796;23;20425;-87
2022/09/22 06:43:36;;;;;;;4.53;2.87;;;39.90;80.90;;;;;;6172406;23;21005;-86
2022/09/22 06:46:28;;;;;;;5.33;2.80;;;40.70;53.80;;;;;;6207119;23;20747;-86
2022/09/22 07:42:51;;;;;;;4.47;2.23;;;46.20;1.00;;;;;;6203858;22;20447;-85
2022/09/22 07:46:11;;;;;;;;;;;;;;;;;;;;;
2022/09/22 07:49:05;;;;;;;6.73;2.50;;;46.00;1.00;;;;;;6124232;23;20480;-84
2022/09/22 07:52:14;;;;;;;8.97;2.87;;;45.60;1.00;;;;;;6121596;23;20920;-85
2022/09/22 07:55:22;;;;;;;5.47;2.43;;;45.80;1.00;;;;;;6087323;23;20391;-85
2022/09/22 08:05:45;;;;;;;6.17;2.20;;;45.50;1.00;;;;;;6180745;23;20404;-85
2022/09/22 08:16:24;;;;;;;2.97;2.10;;;45.70;1.00;;;;;;6118399;23;20432;-84
2022/09/22 08:19:39;;;;;;;;;;;;;;;;;;;;;
2022/09/22 08:22:43;;;;;;;4.77;1.83;;;46.50;1.00;;;;;;6095077;23;20455;-86
2022/09/22 08:30:16;;;;;;;;;;;;;;;;;;;;;
2022/09/22 08:36:27;;;;;;;2.80;1.80;;;46.30;1.00;;;;;;6092274;23;20404;-85
2022/09/22 08:39:16;;;;;;;6.47;2.30;;;45.60;1.00;;;;;;6068818;23;20396;-85
2022/09/22 08:42:17;;;;;;;5.77;2.10;;;45.20;1.00;;;;;;6062752;23;20408;-85
2022/09/22 08:45:00;;;;;;;5.87;2.10;;;45.40;1.00;;;;;;6179951;23;20393;-85
2022/09/22 08:54:25;;;;;;;3.30;1.80;;;44.20;1.00;;;;;;6184762;23;20373;-84
2022/09/22 08:59:59;;;;;;;5.17;1.67;;;43.10;1.00;;;;;;6174276;23;20439;-85
2022/09/22 09:03:09;;;;;;;;;;;;;;;;;;;;;
2022/09/22 09:09:18;;;;;;;5.83;1.90;;;42.40;1.00;;;;;;6172577;23;20882;-87
2022/09/22 09:13:00;;;;;;;4.27;1.60;;;42.60;1.00;;;;;;6185879;23;20354;-87
2022/09/22 09:15:25;;;;;;;7.07;1.53;;;41.90;1.00;;;;;;6173007;23;20386;-85
2022/09/22 09:18:08;;;;;;;2.83;1.67;;;41.70;1.00;;;;;;6159058;23;20475;-85
2022/09/22 09:24:08;;;;;;;2.60;1.60;;;42.80;1.00;;;;;;6184952;23;20476;-85
2022/09/22 09:29:51;;;;;;;4.37;1.67;;;43.60;1.00;;;;;;6163928;23;20450;-86
2022/09/22 09:32:58;;;;;;;2.83;1.30;;;43.50;1.00;;;;;;6184107;23;20389;-85
2022/09/22 09:36:22;;;;;;;;;;;;;;;;;;;;;
2022/09/22 09:39:18;;;;;;;7.40;1.53;;;42.30;1.00;;;;;;6082825;23;20456;-85
2022/09/22 09:45:22;;;;;;;5.70;1.27;;;41.20;1.00;;;;;;6173828;23;20392;-84
2022/09/22 09:47:54;;;;;;;3.57;1.73;;;41.00;1.00;;;;;;6185039;23;20388;-85
2022/09/22 09:51:08;;;;;;;3.80;1.00;;;40.60;1.00;;;;;;6184903;23;20366;-85
2022/09/22 09:53:51;;;;;;;1.80;0.90;;;40.30;1.00;;;;;;6169500;23;20381;-84
2022/09/22 09:56:50;;;;;;;2.47;1.60;;;40.90;1.00;;;;;;6040446;23;20471;-84
2022/09/22 10:02:38;;;;;;;6.10;1.30;;;40.00;1.00;;;;;;6184053;23;20408;-85
2022/09/22 10:05:25;;;;;;;1.63;0.87;;;39.70;1.00;;;;;;6183914;23;20440;-86
2022/09/22 10:08:48;;;;;;;3.17;1.23;;;40.40;1.00;;;;;;6157690;23;20390;-85
2022/09/22 10:11:14;;;;;;;3.23;1.30;;;40.80;1.00;;;;;;6151771;23;20386;-85
2022/09/22 10:13:43;;;;;;;1.37;0.83;;;40.70;1.00;;;;;;6184290;23;20913;-86
2022/09/22 10:16:35;;;;;;;;;;;;;;;;;;;;;
2022/09/22 10:19:21;;;;;;;1.80;1.00;;;40.10;1.00;;;;;;6184081;23;20445;-85
2022/09/22 10:22:00;;;;;;;1.20;0.80;;;39.70;1.00;;;;;;6183976;23;20354;-85
2022/09/22 10:24:52;;;;;;;2.40;1.57;;;39.50;1.00;;;;;;6184332;23;20408;-85
2022/09/22 10:27:28;;;;;;;1.10;0.90;;;39.20;1.00;;;;;;6158284;23;20420;-85
2022/09/22 10:30:12;;;;;;;2.87;0.80;;;38.70;1.00;;;;;;6184116;23;20357;-85
2022/09/22 10:32:40;;;;;;;1.80;1.10;;;38.10;1.00;;;;;;6184099;23;20389;-85
2022/09/22 10:35:44;;;;;;;1.97;0.83;;;37.50;1.00;;;;;;6158569;23;20480;-85
2022/09/22 10:38:21;;;;;;;1.03;0.70;;;36.90;1.00;;;;;;6183570;23;20440;-85
2022/09/22 10:41:11;;;;;;;3.63;0.97;;;36.60;1.00;;;;;;6184284;23;20423;-84
2022/09/22 10:43:52;;;;;;;1.10;0.80;;;36.80;1.00;;;;;;6184127;23;20385;-85
2022/09/22 10:50:17;;;;;;;1.83;1.07;;;38.10;1.00;;;;;;6168794;23;20466;-86
2022/09/22 10:53:02;;;;;;;1.27;1.07;;;38.70;1.00;;;;;;6184646;23;20389;-86
2022/09/22 10:56:16;;;;;;;1.90;0.97;;;38.90;1.00;;;;;;6162488;23;20763;-86
2022/09/22 10:59:22;;;;;;;1.60;1.10;;;39.30;1.00;;;;;;6093109;23;20944;-86
2022/09/22 11:01:56;;;;;;;2.60;1.17;;;39.20;1.00;;;;;;6157916;23;20477;-86
2022/09/22 11:05:01;;;;;;;1.60;0.93;;;38.90;1.00;;;;;;6184640;23;20739;-86
2022/09/22 11:13:44;;;;;;;1.60;0.90;;;38.30;1.00;;;;;;6185740;23;20361;-86
2022/09/22 11:16:45;;;;;;;1.70;0.97;;;38.20;1.00;;;;;;6185155;23;20756;-85
2022/09/22 11:19:43;;;;;;;1.50;0.90;;;38.10;1.00;;;;;;6184334;23;20436;-86
2022/09/22 11:22:53;;;;;;;2.10;0.97;;;37.70;1.00;;;;;;6159154;23;20412;-86
2022/09/22 11:25:40;;;;;;;3.33;1.30;;;37.70;1.00;;;;;;6065134;23;20395;-86
2022/09/22 11:35:39;;;;;;;1.57;0.83;;;37.80;1.00;;;;;;6185839;23;20366;-87
2022/09/22 11:38:24;;;;;;;2.47;0.93;;;38.30;1.00;;;;;;6185105;23;20358;-87
2022/09/22 11:41:59;;;;;;;;;;;;;;;;;;;;;
2022/09/22 11:44:22;;;;;;;1.30;1.17;;;38.60;1.00;;;;;;6172702;23;20947;-86
2022/09/22 11:47:05;;;;;;;3.10;1.30;;;38.00;1.00;;;;;;6157109;23;20761;-85
2022/09/22 11:50:09;;;;;;;3.33;1.57;;;38.20;1.00;;;;;;6183702;23;20449;-85
2022/09/22 11:53:15;;;;;;;1.83;1.30;;;37.70;1.00;;;;;;6184388;23;20448;-85
2022/09/22 11:56:17;;;;;;;3.10;1.53;;;37.40;1.00;;;;;;6185190;23;20944;-85
2022/09/22 11:58:47;;;;;;;2.90;1.27;;;37.50;1.00;;;;;;6146995;23;20389;-84
2022/09/22 12:01:28;;;;;;;3.73;2.20;;;37.90;1.00;;;;;;6157843;23;20395;-85
2022/09/22 12:04:25;;;;;;;2.20;1.60;;;38.10;1.00;;;;;;6184447;23;20365;-85
2022/09/22 12:07:02;;;;;;;2.80;1.50;;;38.00;1.00;;;;;;6182180;23;20754;-84
2022/09/22 12:09:41;;;;;;;2.70;1.60;;;37.60;1.00;;;;;;6159017;23;20859;-84
2022/09/22 12:12:18;;;;;;;2.17;1.63;;;37.40;1.00;;;;;;6185077;23;20381;-84
2022/09/22 12:15:28;;;;;;;;;;;;;;;;;;;;;
2022/09/22 12:18:09;;;;;;;;;;;;;;;;;;;;;
2022/09/22 12:20:55;;;;;;;2.20;2.00;;;38.10;1.00;;;;;;6184893;23;20449;-86
2022/09/22 12:23:37;;;;;;;2.13;1.63;;;38.40;1.00;;;;;;6121530;23;20386;-85
2022/09/22 12:26:14;;;;;;;3.13;1.53;;;38.20;1.00;;;;;;6182409;23;20394;-85
2022/09/22 12:28:44;;;;;;;3.00;1.67;;;38.40;1.00;;;;;;6156430;23;20776;-87
2022/09/22 12:34:24;;;;;;;7.07;1.80;;;37.90;1.00;;;;;;6162457;23;20378;-84
2022/09/22 12:37:08;;;;;;;3.20;1.83;;;37.40;1.00;;;;;;6156784;23;20425;-84
2022/09/22 12:39:50;;;;;;;3.57;1.33;;;37.50;1.00;;;;;;6132747;23;20389;-85
2022/09/22 12:42:27;;;;;;;3.20;1.80;;;36.90;1.00;;;;;;6184021;23;20852;-85
2022/09/22 12:45:03;;;;;;;2.50;1.60;;;35.70;1.00;;;;;;6184227;23;20458;-84
2022/09/22 12:48:00;;;;;;;3.03;1.80;;;35.30;1.00;;;;;;6184362;23;20802;-84
2022/09/22 12:50:31;;;;;;;1.63;1.40;;;35.30;1.00;;;;;;6183050;23;20733;-84
2022/09/22 12:53:12;;;;;;;2.03;1.70;;;35.30;1.00;;;;;;6185400;23;20370;-84
2022/09/22 12:55:38;;;;;;;2.20;1.40;;;35.20;1.00;;;;;;6158474;23;20389;-84
2022/09/22 12:58:29;;;;;;;1.80;1.30;;;35.00;1.00;;;;;;6185147;23;20417;-84
2022/09/22 13:01:16;;;;;;;1.93;1.73;;;34.90;1.00;;;;;;6161638;23;20159;-84
2022/09/22 13:03:51;;;;;;;7.63;1.80;;;34.90;1.00;;;;;;6186747;23;20377;-84
2022/09/22 13:06:25;;;;;;;2.60;1.57;;;35.00;1.00;;;;;;6185566;23;20397;-85
2022/09/22 13:08:53;;;;;;;2.07;1.63;;;34.90;1.00;;;;;;6186665;23;20382;-84
2022/09/22 13:11:39;;;;;;;3.07;1.90;;;34.40;1.00;;;;;;6187668;23;20378;-84
2022/09/22 13:14:43;;;;;;;5.07;2.00;;;33.90;1.00;;;;;;6188780;23;20946;-83
2022/09/22 13:20:37;;;;;;;2.13;1.77;;;33.70;1.00;;;;;;6166430;23;20412;-84
2022/09/22 13:23:14;;;;;;;1.83;1.43;;;34.00;1.00;;;;;;6158716;23;20385;-86
2022/09/22 13:25:41;;;;;;;4.90;1.53;;;34.10;1.00;;;;;;6184624;23;20135;-86
2022/09/22 13:28:06;;;;;;;3.97;1.70;;;34.10;1.00;;;;;;6158830;23;20385;-85
2022/09/22 13:30:32;;;;;;;7.93;1.67;;;34.30;1.00;;;;;;6159933;23;20428;-85
2022/09/22 13:32:59;;;;;;;3.07;1.60;;;34.20;1.00;;;;;;6185478;23;20150;-84
2022/09/22 13:35:36;;;;;;;5.97;1.70;;;34.30;1.00;;;;;;6185716;23;20395;-85
2022/09/22 13:38:22;;;;;;;1.47;1.30;;;33.80;1.00;;;;;;6156157;23;20930;-85
2022/09/22 13:40:49;;;;;;;2.03;1.43;;;32.70;1.00;;;;;;6157894;23;20421;-85
2022/09/22 13:46:43;;;;;;;6.33;1.57;;;32.10;1.00;;;;;;6184585;23;20735;-86
2022/09/22 13:49:46;;;;;;;2.50;1.80;;;32.10;1.00;;;;;;6175623;23;20878;-85
2022/09/22 13:52:18;;;;;;;3.10;1.50;;;31.70;1.00;;;;;;6185682;23;20389;-85
2022/09/22 13:54:51;;;;;;;2.20;1.60;;;31.40;1.00;;;;;;6159766;23;20914;-86
2022/09/22 13:57:30;;;;;;;1.70;1.30;;;31.20;1.00;;;;;;6185935;23;20433;-85
2022/09/22 14:00:25;;;;;;;2.40;1.40;;;30.80;1.00;;;;;;6185397;23;20609;-84
2022/09/22 14:03:02;;;;;;;1.70;1.30;;;30.40;1.00;;;;;;6159452;23;20393;-84
2022/09/22 14:05:36;;;;;;;2.20;1.30;;;29.80;1.00;;;;;;6157458;23;20436;-84
2022/09/22 14:08:03;;;;;;;1.73;1.20;;;29.40;1.00;;;;;;6160257;23;20385;-86
2022/09/22 14:10:29;;;;;;;2.90;1.20;;;29.00;1.00;;;;;;6185373;23;20378;-85
2022/09/22 14:12:57;;;;;;;4.80;1.30;;;28.40;1.00;;;;;;6160259;23;20382;-85
2022/09/22 14:15:37;;;;;;;2.13;1.30;;;28.00;1.00;;;;;;6185787;23;20684;-84
2022/09/22 14:18:25;;;;;;;3.20;1.43;;;27.80;1.00;;;;;;6186262;23;20871;-85
2022/09/22 14:20:55;;;;;;;1.97;1.30;;;28.30;1.00;;;;;;6187054;23;20370;-84
2022/09/22 14:23:36;;;;;;;2.23;1.03;;;28.70;1.00;;;;;;6161249;23;20378;-84
2022/09/22 14:26:43;;;;;;;1.70;1.00;;;29.10;1.00;;;;;;6186037;23;20430;-85
2022/09/22 14:29:23;;;;;;;6.70;1.30;;;29.10;1.00;;;;;;6185285;23;20389;-85
2022/09/22 14:31:53;;;;;;;1.50;1.30;;;28.80;1.00;;;;;;6162130;23;20441;-84
2022/09/22 14:34:32;;;;;;;1.57;1.20;;;28.60;1.00;;;;;;6162787;23;20465;-84
2022/09/22 14:37:35;;;;;;;2.23;1.50;;;28.80;1.00;;;;;;6162400;23;20516;-84
2022/09/22 14:40:04;;;;;;;1.80;1.30;;;28.40;1.00;;;;;;6193154;23;20377;-85
2022/09/22 14:42:53;;;;;;;2.27;1.80;;;28.00;1.00;;;;;;6192440;23;20393;-85
2022/09/22 14:45:31;;;;;;;;;;;;;;;;;;;;;
2022/09/22 14:48:29;;;;;;;;;;;;;;;;;;;;;
2022/09/22 14:51:19;;;;;;;2.70;1.20;;;28.10;1.00;;;;;;6194357;23;20378;-85
2022/09/22 14:54:12;;;;;;;;;;;;;;;;;;;;;
2022/09/22 14:57:01;;;;;;;2.37;1.10;;;27.40;1.00;;;;;;6193926;23;20448;-84
2022/09/22 15:02:57;;;;;;;2.30;1.43;;;26.60;1.00;;;;;;6194829;23;20419;-86
2022/09/22 15:05:26;;;;;;;3.73;1.60;;;26.00;1.00;;;;;;6166945;23;20971;-84
2022/09/22 15:07:59;;;;;;;2.13;1.40;;;25.30;1.00;;;;;;6169375;23;20397;-85
2022/09/22 15:10:34;;;;;;;3.30;1.40;;;24.80;1.00;;;;;;6167240;23;20386;-85
2022/09/22 15:13:28;;;;;;;3.00;1.37;;;24.60;1.00;;;;;;6195615;23;20360;-85
2022/09/22 15:16:33;;;;;;;1.50;1.10;;;24.40;1.00;;;;;;6169392;23;20433;-86
2022/09/22 15:19:19;;;;;;;2.27;1.43;;;24.30;1.00;;;;;;6194291;23;20461;-85
2022/09/22 15:22:13;;;;;;;1.87;1.33;;;24.00;1.00;;;;;;6145132;23;20385;-85
2022/09/22 15:25:17;;;;;;;;;;;;;;;;;;;;;
2022/09/22 15:27:58;;;;;;;2.30;1.30;;;24.00;1.00;;;;;;6190800;23;20902;-84
2022/09/22 15:30:31;;;;;;;2.30;1.30;;;23.70;1.00;;;;;;6165979;23;20400;-85
2022/09/22 15:33:01;;;;;;;5.30;1.60;;;23.60;1.00;;;;;;6166076;23;20396;-84
2022/09/22 15:35:55;;;;;;;2.50;1.30;;;23.50;1.00;;;;;;6168158;23;20718;-85
2022/09/22 15:38:44;;;;;;;2.77;1.30;;;23.40;1.00;;;;;;6196187;23;20432;-85
2022/09/22 15:41:14;;;;;;;3.67;1.43;;;23.30;1.00;;;;;;6195726;23;20442;-85
2022/09/22 15:43:58;;;;;;;2.17;1.50;;;23.30;1.00;;;;;;6169987;23;20401;-86
2022/09/22 15:47:00;;;;;;;3.13;1.40;;;23.30;1.00;;;;;;6170034;23;20472;-85
2022/09/22 15:49:43;;;;;;;3.00;1.50;;;23.20;1.00;;;;;;6195378;23;20387;-84
2022/09/22 15:52:27;;;;;;;4.60;1.77;;;23.10;1.00;;;;;;6162978;23;20874;-84
2022/09/22 15:55:17;;;;;;;2.87;1.40;;;23.10;1.00;;;;;;6192003;23;20364;-85
2022/09/22 15:57:45;;;;;;;2.97;1.83;;;23.00;1.00;;;;;;6198386;23;20426;-85
2022/09/22 16:00:15;;;;;;;3.70;1.30;;;23.00;1.00;;;;;;6165059;23;20399;-85
2022/09/22 16:02:41;;;;;;;5.00;1.50;;;22.90;1.00;;;;;;6165091;23;20727;-85
2022/09/22 16:05:11;;;;;;;2.80;1.70;;;22.70;1.00;;;;;;6163547;23;20737;-85
2022/09/22 16:07:40;;;;;;;5.13;1.20;;;22.70;1.00;;;;;;6189002;23;20423;-84
2022/09/22 16:10:09;;;;;;;2.13;1.63;;;22.70;1.00;;;;;;6163927;23;20397;-85
2022/09/22 16:12:43;;;;;;;3.10;1.70;;;22.70;1.00;;;;;;6163331;23;20410;-85
2022/09/22 16:15:13;;;;;;;1.80;1.33;;;22.60;1.00;;;;;;6195465;23;20383;-84
2022/09/22 16:17:43;;;;;;;2.20;1.70;;;22.50;1.00;;;;;;6164840;23;20467;-84
2022/09/22 16:20:16;;;;;;;4.10;1.60;;;22.50;1.00;;;;;;6188665;23;20377;-83
2022/09/22 16:23:01;;;;;;;1.77;1.50;;;22.40;1.00;;;;;;6192068;23;20355;-83
2022/09/22 16:25:53;;;;;;;1.63;1.37;;;22.30;1.00;;;;;;6190770;23;20445;-84
2022/09/22 16:28:21;;;;;;;2.43;1.43;;;22.10;1.00;;;;;;6181811;23;20464;-83
2022/09/22 16:33:32;;;;;;;2.20;1.33;;;22.00;1.00;;;;;;6179676;23;20444;-85
2022/09/22 16:35:58;;;;;;;5.30;1.63;;;21.80;1.00;;;;;;6163166;23;20475;-83
2022/09/22 16:38:38;;;;;;;3.50;1.60;;;21.80;1.00;;;;;;6190216;23;20464;-83
2022/09/22 16:41:41;;;;;;;1.60;1.10;;;21.70;1.00;;;;;;6164173;23;20196;-84
2022/09/22 16:44:23;;;;;;;2.03;1.30;;;21.70;1.00;;;;;;6188891;23;20761;-83
2022/09/22 16:47:06;;;;;;;9.23;1.50;;;21.50;1.00;;;;;;6163725;23;20472;-84
2022/09/22 16:53:14;;;;;;;1.60;1.50;;;21.20;1.00;;;;;;6143678;23;20387;-84
2022/09/22 16:55:49;;;;;;;5.80;1.83;;;21.10;1.00;;;;;;6189299;23;20392;-84
2022/09/22 16:58:33;;;;;;;4.13;1.80;;;20.90;1.00;;;;;;6163717;23;20164;-84
2022/09/22 17:01:28;;;;;;;6.67;1.80;;;20.70;1.00;;;;;;6189845;23;20380;-85
2022/09/22 17:04:06;;;;;;;1.83;1.43;;;20.60;1.00;;;;;;6190156;23;20438;-84
2022/09/22 17:06:41;;;;;;;4.93;1.80;;;20.40;1.00;;;;;;6191919;23;20791;-85
2022/09/22 17:09:30;;;;;;;2.00;1.50;;;20.40;1.00;;;;;;6193686;23;20440;-84
2022/09/22 17:12:21;;;;;;;3.57;2.10;;;20.30;1.00;;;;;;6166860;23;20388;-85
2022/09/22 17:14:58;;;;;;;1.87;1.37;;;20.30;1.00;;;;;;6194314;23;20377;-86
2022/09/22 17:17:31;;;;;;;1.97;1.70;;;20.20;1.00;;;;;;6195457;23;20426;-88
2022/09/22 17:19:58;;;;;;;3.20;1.83;;;20.10;1.00;;;;;;6165314;23;20396;-84
2022/09/22 17:22:23;;;;;;;2.60;1.53;;;20.10;1.00;;;;;;6194021;23;20379;-85
2022/09/22 17:24:58;;;;;;;4.93;1.50;;;20.00;1.00;;;;;;6195074;23;20419;-85
2022/09/22 17:27:26;;;;;;;2.20;1.50;;;19.90;1.10;;;;;;6193326;23;20183;-85
2022/09/22 17:30:04;;;;;;;1.63;1.23;;;19.90;1.90;;;;;;6190634;23;20380;-84
2022/09/22 17:32:41;;;;;;;2.10;1.27;;;19.90;2.20;;;;;;6190997;23;20387;-85
2022/09/22 17:35:10;;;;;;;2.17;1.50;;;19.80;2.10;;;;;;6188289;23;20944;-86
2022/09/22 17:37:41;;;;;;;2.77;1.67;;;19.80;3.00;;;;;;6188155;23;20429;-86
2022/09/22 17:40:12;;;;;;;4.30;2.10;;;19.80;3.40;;;;;;6189459;23;20354;-86
2022/09/22 17:42:37;;;;;;;2.70;1.47;;;19.70;3.70;;;;;;6189763;23;20378;-85
2022/09/22 17:45:06;;;;;;;2.43;1.70;;;19.80;4.80;;;;;;6162759;23;20393;-85
2022/09/22 17:55:44;;;;;;;4.00;2.40;;;19.60;7.30;;;;;;6188467;23;20401;-85
2022/09/22 17:58:10;;;;;;;3.40;2.20;;;19.50;8.10;;;;;;6163401;23;20572;-85
2022/09/22 18:00:35;;;;;;;7.10;3.93;;;19.40;9.10;;;;;;6187596;23;20150;-86
2022/09/22 18:03:04;;;;;;;7.40;6.50;;;19.40;11.40;;;;;;6188755;23;20151;-85
2022/09/22 18:05:32;;;;;;;13.57;8.20;;;19.30;12.40;;;;;;6189973;23;20157;-85
2022/09/22 18:08:02;;;;;;;9.70;3.73;;;19.30;12.90;;;;;;6191219;23;20677;-86
2022/09/22 18:10:34;;;;;;;6.50;3.33;;;19.20;14.00;;;;;;6163425;23;20450;-83
2022/09/22 18:13:00;;;;;;;6.17;2.37;;;19.10;14.30;;;;;;6189965;23;20834;-86
2022/09/22 18:15:55;;;;;;;4.67;3.47;;;19.00;15.50;;;;;;6161499;23;20744;-86
2022/09/22 18:18:21;;;;;;;4.10;2.73;;;19.00;16.70;;;;;;6160723;23;20868;-86
2022/09/22 18:21:05;;;;;;;6.17;2.80;;;18.90;17.60;;;;;;6188588;23;20381;-86
2022/09/22 18:55:48;;;;;;;6.70;3.30;;;17.90;23.50;;;;;;6015756;23;20398;-84
2022/09/22 19:09:57;;;;;;;;;;;;;;;;;;;;;
2022/09/22 19:29:59;;;;;;;;;;;;;;;;;;;;;
2022/09/22 19:33:10;;;;;;;13.53;9.57;;;17.10;32.30;;;;;;6246938;23;20406;-84
2022/09/22 20:00:35;;;;;;;7.70;3.87;;;16.30;51.50;;;;;;6195367;23;20422;-84
2022/09/22 20:18:38;;;;;;;6.13;2.00;;;16.20;57.30;;;;;;6034862;23;20441;-85
2022/09/22 21:20:30;;;;;;;;;;;;;;;;;;;;;
2022/09/22 22:36:57;;;;;;;4.27;2.77;;;14.50;96.60;;;;;;6229279;23;20498;-84
2022/09/22 22:40:01;;;;;;;;;;;;;;;;;;;;;
2022/09/22 22:43:05;;;;;;;3.53;2.10;;;14.40;98.70;;;;;;6244204;23;20471;-85
2022/09/22 22:56:07;;;;;;;;;;;;;;;;;;;;;
2022/09/22 23:13:35;;;;;;;3.33;2.97;;;14.20;99.90;;;;;;5946024;24;20379;-85
2022/09/22 23:38:43;;;;;;;2.67;2.00;;;14.00;99.90;;;;;;6217296;23;20423;-85
